createdAt,value
2018-02-13T00:00:16.714Z,101510.59
2018-02-13T00:02:45.795Z,101505.86
2018-02-13T00:05:14.115Z,101503.77
2018-02-13T00:07:42.494Z,101506.06
2018-02-13T00:10:11.568Z,101501.82
2018-02-13T00:12:39.868Z,101500.16
2018-02-13T00:15:08.152Z,101500.98
2018-02-13T00:17:36.580Z,101496.06
2018-02-13T00:20:05.658Z,101498.30
2018-02-13T00:22:49.265Z,101500.03
2018-02-13T00:25:17.580Z,101494.47
2018-02-13T00:27:45.932Z,101497.11
2018-02-13T00:30:14.340Z,101495.16
2018-02-13T00:32:42.680Z,101490.16
2018-02-13T00:35:11.014Z,101490.03
2018-02-13T00:37:40.132Z,101488.44
2018-02-13T00:40:08.461Z,101482.73
2018-02-13T00:42:36.760Z,101478.08
2018-02-13T00:45:05.070Z,101479.34
2018-02-13T00:47:34.122Z,101479.05
2018-02-13T00:50:02.407Z,101470.38
2018-02-13T00:52:30.693Z,101472.52
2018-02-13T00:54:59.007Z,101469.68
2018-02-13T00:57:28.071Z,101465.23
2018-02-13T00:59:56.413Z,101460.80
2018-02-13T01:02:24.749Z,101462.05
2018-02-13T01:04:53.054Z,101457.95
2018-02-13T01:07:22.128Z,101457.89
2018-02-13T01:09:50.451Z,101451.08
2018-02-13T01:12:18.742Z,101451.28
2018-02-13T01:14:47.060Z,101453.16
2018-02-13T01:17:16.196Z,101441.83
2018-02-13T01:19:45.277Z,101442.03
2018-02-13T01:22:13.596Z,101441.64
2018-02-13T01:24:41.935Z,101445.31
2018-02-13T01:27:10.243Z,101442.33
2018-02-13T01:29:39.327Z,101436.63
2018-02-13T01:32:07.723Z,101435.86
2018-02-13T01:34:36.813Z,101437.53
2018-02-13T01:37:05.897Z,101431.29
2018-02-13T01:39:34.205Z,101432.19
2018-02-13T01:42:03.300Z,101428.78
2018-02-13T01:44:32.370Z,101427.53
2018-02-13T01:47:00.752Z,101428.16
2018-02-13T01:49:29.101Z,101425.38
2018-02-13T01:51:57.399Z,101420.59
2018-02-13T01:54:26.662Z,101423.86
2018-02-13T01:56:55.743Z,101420.45
2018-02-13T01:59:24.049Z,101418.72
2018-02-13T02:01:52.356Z,101416.43
2018-02-13T02:04:20.691Z,101416.56
2018-02-13T02:06:49.747Z,101413.52
2018-02-13T02:09:18.054Z,101407.74
2018-02-13T02:11:47.150Z,101406.42
2018-02-13T02:14:15.493Z,101410.86
2018-02-13T02:16:44.393Z,101408.78
2018-02-13T02:19:12.685Z,101411.23
2018-02-13T02:21:41.026Z,101414.98
2018-02-13T02:24:09.402Z,101403.59
2018-02-13T02:26:37.730Z,101405.80
2018-02-13T02:29:06.053Z,101401.31
2018-02-13T02:31:35.112Z,101406.70
2018-02-13T02:34:03.412Z,101401.85
2018-02-13T02:36:31.736Z,101409.34
2018-02-13T02:39:00.122Z,101397.89
2018-02-13T02:41:28.390Z,101399.22
2018-02-13T02:43:57.512Z,101395.81
2018-02-13T02:46:25.900Z,101397.63
2018-02-13T02:48:54.249Z,101403.11
2018-02-13T02:51:23.356Z,101401.09
2018-02-13T02:53:52.462Z,101391.92
2018-02-13T02:56:21.536Z,101397.55
2018-02-13T02:58:49.864Z,101392.70
2018-02-13T03:01:18.168Z,101388.04
2018-02-13T03:03:46.513Z,101382.97
2018-02-13T03:06:14.920Z,101370.82
2018-02-13T03:08:43.393Z,101363.68
2018-02-13T03:11:11.705Z,101364.30
2018-02-13T03:13:40.044Z,101369.39
2018-02-13T03:16:08.366Z,101367.85
2018-02-13T03:18:36.713Z,101358.70
2018-02-13T03:21:05.066Z,101369.94
2018-02-13T03:23:33.407Z,101367.72
2018-02-13T03:26:01.724Z,101369.52
2018-02-13T03:28:30.062Z,101368.69
2018-02-13T03:30:58.482Z,101363.13
2018-02-13T03:33:26.840Z,101365.77
2018-02-13T03:35:55.194Z,101364.10
2018-02-13T03:38:24.309Z,101362.85
2018-02-13T03:40:53.401Z,101359.73
2018-02-13T03:43:21.731Z,101357.51
2018-02-13T03:45:50.045Z,101351.82
2018-02-13T03:48:19.151Z,101354.88
2018-02-13T03:50:47.509Z,101358.96
2018-02-13T03:53:15.843Z,101364.10
2018-02-13T03:55:44.171Z,101359.31
2018-02-13T03:58:12.503Z,101357.98
2018-02-13T04:00:40.847Z,101356.48
2018-02-13T04:03:09.928Z,101354.99
2018-02-13T04:05:38.259Z,101351.27
2018-02-13T04:08:06.565Z,101349.25
2018-02-13T04:10:34.926Z,101341.06
2018-02-13T04:13:03.261Z,101340.72
2018-02-13T04:15:32.451Z,101337.38
2018-02-13T04:18:00.757Z,101334.33
2018-02-13T04:20:29.853Z,101340.28
2018-02-13T04:22:58.931Z,101335.66
2018-02-13T04:25:27.238Z,101328.23
2018-02-13T04:27:56.351Z,101335.66
2018-02-13T04:30:24.653Z,101323.45
2018-02-13T04:32:52.969Z,101327.73
2018-02-13T04:35:21.380Z,101324.47
2018-02-13T04:37:49.713Z,101327.88
2018-02-13T04:40:18.009Z,101326.75
2018-02-13T04:42:46.329Z,101325.64
2018-02-13T04:45:15.427Z,101323.06
2018-02-13T04:47:44.494Z,101314.20
2018-02-13T04:50:12.835Z,101320.59
2018-02-13T04:52:41.159Z,101310.80
2018-02-13T04:55:10.178Z,101316.06
2018-02-13T04:57:38.501Z,101314.02
2018-02-13T05:00:07.563Z,101316.16
2018-02-13T05:02:36.683Z,101311.52
2018-02-13T05:05:05.792Z,101302.01
2018-02-13T05:07:34.099Z,101306.30
2018-02-13T05:10:02.433Z,101308.70
2018-02-13T05:12:31.514Z,101296.98
2018-02-13T05:14:59.844Z,101301.91
2018-02-13T05:17:29.024Z,101296.31
2018-02-13T05:19:58.127Z,101293.69
2018-02-13T05:22:27.201Z,101299.92
2018-02-13T05:24:55.603Z,101300.41
2018-02-13T05:27:24.684Z,101290.97
2018-02-13T05:29:53.013Z,101288.53
2018-02-13T05:32:21.347Z,101284.71
2018-02-13T05:34:49.675Z,101290.39
2018-02-13T05:37:17.986Z,101288.18
2018-02-13T05:39:46.305Z,101279.18
2018-02-13T05:42:15.469Z,101277.37
2018-02-13T05:44:43.741Z,101284.66
2018-02-13T05:47:12.049Z,101277.53
2018-02-13T05:49:40.343Z,101278.78
2018-02-13T05:52:09.431Z,101265.74
2018-02-13T05:54:37.795Z,101274.61
2018-02-13T05:57:06.111Z,101272.11
2018-02-13T05:59:35.198Z,101268.91
2018-02-13T06:02:03.523Z,101269.39
2018-02-13T06:04:31.827Z,101271.67
2018-02-13T06:07:00.137Z,101265.99
2018-02-13T06:09:28.487Z,101270.36
2018-02-13T06:11:56.821Z,101262.53
2018-02-13T06:14:25.919Z,101254.49
2018-02-13T06:16:54.995Z,101262.39
2018-02-13T06:19:23.365Z,101265.99
2018-02-13T06:21:51.657Z,101256.17
2018-02-13T06:24:19.965Z,101255.27
2018-02-13T06:26:49.051Z,101251.23
2018-02-13T06:29:17.382Z,101244.44
2018-02-13T06:31:45.702Z,101249.23
2018-02-13T06:34:14.810Z,101246.66
2018-02-13T06:36:43.966Z,101243.89
2018-02-13T06:39:13.057Z,101244.59
2018-02-13T06:41:41.379Z,101242.03
2018-02-13T06:44:09.682Z,101233.64
2018-02-13T06:46:38.011Z,101232.46
2018-02-13T06:49:06.343Z,101232.52
2018-02-13T06:51:34.739Z,101245.62
2018-02-13T06:54:03.810Z,101232.39
2018-02-13T06:56:32.912Z,101234.06
2018-02-13T06:59:01.247Z,101235.72
2018-02-13T07:01:29.618Z,101227.27
2018-02-13T07:03:58.690Z,101228.45
2018-02-13T07:06:27.003Z,101236.57
2018-02-13T07:08:55.355Z,101227.36
2018-02-13T07:11:23.712Z,101226.94
2018-02-13T07:13:52.195Z,101232.20
2018-02-13T07:16:20.520Z,101226.94
2018-02-13T07:18:49.629Z,101224.35
2018-02-13T07:21:18.702Z,101218.19
2018-02-13T07:23:47.038Z,101214.45
2018-02-13T07:26:15.332Z,101216.39
2018-02-13T07:28:43.641Z,101214.94
2018-02-13T07:31:11.967Z,101220.63
2018-02-13T07:33:40.255Z,101212.30
2018-02-13T07:36:08.578Z,101212.48
2018-02-13T07:38:36.895Z,101224.56
2018-02-13T07:41:05.977Z,101224.28
2018-02-13T07:43:34.287Z,101223.73
2018-02-13T07:46:02.605Z,101222.28
2018-02-13T07:48:31.650Z,101220.69
2018-02-13T07:51:00.727Z,101225.60
2018-02-13T07:53:29.023Z,101225.12
2018-02-13T07:55:58.141Z,101213.55
2018-02-13T07:58:27.215Z,101218.72
2018-02-13T08:00:55.508Z,101220.67
2018-02-13T08:03:24.562Z,101225.30
2018-02-13T08:05:52.963Z,101221.77
2018-02-13T08:08:21.279Z,101216.15
2018-02-13T08:10:50.353Z,101216.47
2018-02-13T08:13:18.766Z,101205.50
2018-02-13T08:15:47.835Z,101209.22
2018-02-13T08:18:16.123Z,101203.05
2018-02-13T08:20:44.414Z,101201.12
2018-02-13T08:23:13.506Z,101203.70
2018-02-13T08:25:42.594Z,101201.95
2018-02-13T08:28:10.905Z,101205.73
2018-02-13T08:30:39.972Z,101203.36
2018-02-13T08:33:08.365Z,101201.58
2018-02-13T08:35:37.572Z,101199.84
2018-02-13T08:38:05.960Z,101199.34
2018-02-13T08:40:35.752Z,101195.75
2018-02-13T08:43:04.067Z,101199.63
2018-02-13T08:45:33.138Z,101191.73
2018-02-13T08:48:01.473Z,101191.50
2018-02-13T08:50:29.764Z,101196.66
2018-02-13T08:52:58.063Z,101198.87
2018-02-13T08:55:26.352Z,101196.55
2018-02-13T08:57:54.748Z,101190.46
2018-02-13T09:00:23.134Z,101203.79
2018-02-13T09:02:51.463Z,101190.98
2018-02-13T09:05:19.777Z,101185.09
2018-02-13T09:07:48.089Z,101185.82
2018-02-13T09:10:16.406Z,101182.22
2018-02-13T09:12:44.790Z,101175.29
2018-02-13T09:15:13.092Z,101169.45
2018-02-13T09:17:41.390Z,101165.38
2018-02-13T09:20:09.709Z,101168.91
2018-02-13T09:22:38.848Z,101166.09
2018-02-13T09:25:07.736Z,101171.31
2018-02-13T09:27:36.042Z,101159.45
2018-02-13T09:30:04.328Z,101162.02
2018-02-13T09:32:32.630Z,101168.17
2018-02-13T09:35:00.930Z,101171.25
2018-02-13T09:37:29.978Z,101166.86
2018-02-13T09:39:58.298Z,101165.39
2018-02-13T09:42:26.608Z,101158.48
2018-02-13T09:44:55.683Z,101165.20
2018-02-13T09:47:24.006Z,101158.02
2018-02-13T09:49:52.304Z,101168.94
2018-02-13T09:52:20.618Z,101168.23
2018-02-13T09:54:48.928Z,101160.52
2018-02-13T09:57:17.252Z,101155.56
2018-02-13T09:59:45.575Z,101164.97
2018-02-13T10:02:14.642Z,101165.30
2018-02-13T10:04:42.946Z,101166.09
2018-02-13T10:07:11.241Z,101166.38
2018-02-13T10:09:40.291Z,101164.43
2018-02-13T10:12:08.601Z,101147.44
2018-02-13T10:14:36.885Z,101156.80
2018-02-13T10:17:05.185Z,101153.92
2018-02-13T10:19:34.230Z,101152.75
2018-02-13T10:22:02.520Z,101148.13
2018-02-13T10:24:30.808Z,101146.67
2018-02-13T10:26:59.140Z,101149.27
2018-02-13T10:29:28.212Z,101147.02
2018-02-13T10:31:56.536Z,101146.05
2018-02-13T10:34:24.908Z,101137.36
2018-02-13T10:36:53.180Z,101141.70
2018-02-13T10:39:21.568Z,101135.31
2018-02-13T10:41:49.957Z,101138.39
2018-02-13T10:44:18.297Z,101138.41
2018-02-13T10:46:46.586Z,101131.77
2018-02-13T10:49:14.900Z,101123.17
2018-02-13T10:51:43.921Z,101128.33
2018-02-13T10:54:12.238Z,101132.88
2018-02-13T10:56:40.551Z,101125.19
2018-02-13T10:59:08.884Z,101128.15
2018-02-13T11:01:40.000Z,101134.87
2018-02-13T11:04:08.292Z,101127.89
2018-02-13T11:06:36.600Z,101123.67
2018-02-13T11:09:04.908Z,101121.36
2018-02-13T11:11:33.986Z,101120.26
2018-02-13T11:14:02.305Z,101113.14
2018-02-13T11:16:31.386Z,101118.58
2018-02-13T11:19:00.530Z,101113.61
2018-02-13T11:21:28.864Z,101107.70
2018-02-13T11:23:57.184Z,101115.82
2018-02-13T11:26:25.476Z,101123.50
2018-02-13T11:28:53.796Z,101107.32
2018-02-13T11:31:22.117Z,101099.48
2018-02-13T11:33:51.230Z,101108.35
2018-02-13T11:36:19.515Z,101104.95
2018-02-13T11:38:47.804Z,101107.64
2018-02-13T11:41:16.122Z,101112.58
2018-02-13T11:43:44.431Z,101104.44
2018-02-13T11:46:13.524Z,101101.36
2018-02-13T11:48:42.582Z,101096.41
2018-02-13T11:51:10.878Z,101100.05
2018-02-13T11:53:39.158Z,101082.30
2018-02-13T11:56:07.444Z,101088.09
2018-02-13T11:58:35.751Z,101077.24
2018-02-13T12:01:04.052Z,101076.50
2018-02-13T12:03:32.348Z,101066.69
2018-02-13T12:06:00.626Z,101062.80
2018-02-13T12:08:28.925Z,101068.31
2018-02-13T12:10:57.819Z,101069.06
2018-02-13T12:13:26.106Z,101067.61
2018-02-13T12:15:54.412Z,101060.67
2018-02-13T12:18:22.706Z,101062.95
2018-02-13T12:20:51.021Z,101056.89
2018-02-13T12:23:19.346Z,101051.42
2018-02-13T12:25:47.672Z,101047.70
2018-02-13T12:28:16.710Z,101050.56
2018-02-13T12:30:45.030Z,101046.13
2018-02-13T12:33:13.924Z,101039.26
2018-02-13T12:35:42.218Z,101043.81
2018-02-13T12:38:11.306Z,101041.61
2018-02-13T12:40:39.617Z,101021.39
2018-02-13T12:43:07.971Z,101032.11
2018-02-13T12:45:37.030Z,101021.33
2018-02-13T12:48:05.355Z,101021.89
2018-02-13T12:50:34.410Z,101016.95
2018-02-13T12:53:02.738Z,101026.00
2018-02-13T12:55:31.839Z,101014.07
2018-02-13T12:58:00.896Z,101016.59
2018-02-13T13:00:29.226Z,101027.92
2018-02-13T13:02:58.318Z,101012.64
2018-02-13T13:05:27.462Z,101007.50
2018-02-13T13:07:56.532Z,101001.26
2018-02-13T13:10:24.836Z,101007.91
2018-02-13T13:12:53.148Z,100998.41
2018-02-13T13:15:21.426Z,100998.51
2018-02-13T13:17:49.723Z,100991.44
2018-02-13T13:20:18.128Z,100992.59
2018-02-13T13:22:47.199Z,100992.59
2018-02-13T13:25:15.496Z,100992.08
2018-02-13T13:27:43.812Z,100989.23
2018-02-13T13:30:12.128Z,100983.59
2018-02-13T13:32:40.510Z,100988.27
2018-02-13T13:35:08.830Z,100980.38
2018-02-13T13:37:37.929Z,100978.09
2018-02-13T13:40:07.026Z,100969.59
2018-02-13T13:42:36.090Z,100969.69
2018-02-13T13:45:04.375Z,100979.33
2018-02-13T13:47:32.686Z,100970.76
2018-02-13T13:50:01.118Z,100961.85
2018-02-13T13:52:29.439Z,100959.73
2018-02-13T13:54:57.743Z,100959.33
2018-02-13T13:57:26.812Z,100962.59
2018-02-13T13:59:55.913Z,100961.95
2018-02-13T14:02:24.260Z,100962.94
2018-02-13T14:04:52.628Z,100962.52
2018-02-13T14:07:20.957Z,100958.95
2018-02-13T14:09:49.242Z,100951.97
2018-02-13T14:12:17.534Z,100952.38
2018-02-13T14:14:45.820Z,100956.70
2018-02-13T14:17:14.098Z,100953.72
2018-02-13T14:19:42.388Z,100954.67
2018-02-13T14:22:11.461Z,100953.03
2018-02-13T14:24:39.749Z,100967.39
2018-02-13T14:27:08.042Z,100963.95
2018-02-13T14:29:36.372Z,100967.85
2018-02-13T14:32:04.693Z,100961.06
2018-02-13T14:34:33.031Z,100965.33
2018-02-13T14:37:01.337Z,100953.67
2018-02-13T14:39:29.701Z,100975.47
2018-02-13T14:41:58.044Z,100959.17
2018-02-13T14:44:26.299Z,100974.83
2018-02-13T14:46:54.600Z,100971.93
2018-02-13T14:49:23.658Z,100967.73
2018-02-13T14:51:51.947Z,100958.28
2018-02-13T14:54:20.270Z,100962.37
2018-02-13T14:56:49.339Z,100971.69
2018-02-13T14:59:17.618Z,100970.67
2018-02-13T15:01:45.984Z,100969.70
2018-02-13T15:04:14.305Z,100970.81
2018-02-13T15:06:44.248Z,100965.58
2018-02-13T15:09:12.578Z,100969.06
2018-02-13T15:11:40.883Z,100965.63
2018-02-13T15:14:09.961Z,100967.28
2018-02-13T15:16:50.133Z,100963.93
2018-02-13T15:19:18.440Z,100966.68
2018-02-13T15:21:46.768Z,100967.60
2018-02-13T15:24:15.091Z,100962.46
2018-02-13T15:26:44.159Z,100976.69
2018-02-13T15:29:12.462Z,100968.28
2018-02-13T15:31:42.887Z,100970.67
2018-02-13T15:34:11.191Z,100964.77
2018-02-13T15:36:40.237Z,100972.02
2018-02-13T15:39:08.539Z,100970.45
2018-02-13T15:41:36.840Z,100974.81
2018-02-13T15:44:05.917Z,100976.95
2018-02-13T15:46:34.206Z,100982.22
2018-02-13T15:49:02.569Z,100979.83
2018-02-13T15:51:30.867Z,100978.17
2018-02-13T15:53:59.182Z,100978.08
2018-02-13T15:56:27.523Z,100975.19
2018-02-13T15:58:56.578Z,100983.44
2018-02-13T16:01:25.769Z,100991.91
2018-02-13T16:03:54.073Z,100995.09
2018-02-13T16:06:22.397Z,100989.91
2018-02-13T16:08:51.456Z,100989.97
2018-02-13T16:11:19.759Z,100997.23
2018-02-13T16:13:48.059Z,100999.41
2018-02-13T16:16:16.385Z,100997.87
2018-02-13T16:18:45.174Z,101000.03
2018-02-13T16:21:13.529Z,100992.58
2018-02-13T16:23:42.597Z,100996.18
2018-02-13T16:26:10.907Z,100999.08
2018-02-13T16:28:40.008Z,101003.00
2018-02-13T16:31:08.405Z,101002.28
2018-02-13T16:33:37.463Z,101009.21
2018-02-13T16:36:07.211Z,101003.94
2018-02-13T16:38:36.327Z,100999.45
2018-02-13T16:41:04.620Z,101004.21
2018-02-13T16:43:32.915Z,101005.34
2018-02-13T16:46:01.866Z,101010.77
2018-02-13T16:48:30.943Z,101013.14
2018-02-13T16:50:59.301Z,101022.05
2018-02-13T16:53:27.641Z,101017.95
2018-02-13T16:55:55.943Z,101012.00
2018-02-13T16:58:24.279Z,101011.92
2018-02-13T17:00:52.572Z,101018.40
2018-02-13T17:03:21.713Z,101023.08
2018-02-13T17:05:50.013Z,101023.10
2018-02-13T17:08:18.304Z,101027.63
2018-02-13T17:10:46.602Z,101030.77
2018-02-13T17:13:14.915Z,101032.69
2018-02-13T17:15:43.305Z,101026.22
2018-02-13T17:18:11.627Z,101035.34
2018-02-13T17:20:39.924Z,101033.27
2018-02-13T17:23:08.252Z,101037.75
2018-02-13T17:25:36.654Z,101039.75
2018-02-13T17:28:05.309Z,101044.39
2018-02-13T17:30:33.589Z,101045.42
2018-02-13T17:33:01.896Z,101038.21
2018-02-13T17:35:30.191Z,101048.08
2018-02-13T17:37:58.522Z,101055.22
2018-02-13T17:40:27.642Z,101060.36
2018-02-13T17:42:55.947Z,101060.44
2018-02-13T17:45:24.254Z,101070.09
2018-02-13T17:47:52.600Z,101069.68
2018-02-13T17:50:20.922Z,101076.89
2018-02-13T17:52:49.205Z,101080.20
2018-02-13T17:55:18.263Z,101077.50
2018-02-13T17:57:46.559Z,101087.58
2018-02-13T18:00:14.958Z,101087.83
2018-02-13T18:02:43.290Z,101089.52
2018-02-13T18:05:12.366Z,101090.26
2018-02-13T18:07:41.449Z,101096.17
2018-02-13T18:10:09.780Z,101092.68
2018-02-13T18:12:38.111Z,101101.81
2018-02-13T18:15:07.196Z,101101.41
2018-02-13T18:17:36.128Z,101101.14
2018-02-13T18:20:05.228Z,101104.47
2018-02-13T18:22:34.329Z,101109.50
2018-02-13T18:25:02.684Z,101108.02
2018-02-13T18:27:30.995Z,101117.02
2018-02-13T18:30:00.088Z,101118.45
2018-02-13T18:32:29.199Z,101115.52
2018-02-13T18:34:58.281Z,101110.41
2018-02-13T18:37:26.590Z,101110.95
2018-02-13T18:39:54.896Z,101121.73
2018-02-13T18:42:23.181Z,101117.57
2018-02-13T18:44:51.481Z,101127.47
2018-02-13T18:47:19.792Z,101132.09
2018-02-13T18:49:48.875Z,101124.70
2018-02-13T18:54:45.478Z,101128.44
2018-02-13T18:57:13.831Z,101133.66
2018-02-13T18:59:42.138Z,101132.65
2018-02-13T19:02:10.441Z,101140.74
2018-02-13T19:04:38.732Z,101136.59
2018-02-13T19:07:07.022Z,101141.70
2018-02-13T19:09:35.347Z,101141.05
2018-02-13T19:12:04.426Z,101135.50
2018-02-13T19:14:32.727Z,101148.47
2018-02-13T19:19:30.059Z,101153.16
2018-02-13T19:21:58.438Z,101160.09
2018-02-13T19:24:27.455Z,101155.52
2018-02-13T19:26:55.743Z,101164.09
2018-02-13T19:29:24.072Z,101160.85
2018-02-13T19:31:52.388Z,101165.54
2018-02-13T19:34:20.676Z,101161.65
2018-02-13T19:36:48.977Z,101167.66
2018-02-13T19:39:18.052Z,101166.22
2018-02-13T19:41:47.233Z,101169.59
2018-02-13T19:44:15.565Z,101172.49
2018-02-13T19:46:43.846Z,101171.32
2018-02-13T19:49:12.158Z,101177.17
2018-02-13T19:51:40.480Z,101174.76
2018-02-13T19:54:08.833Z,101177.21
2018-02-13T19:56:37.208Z,101176.80
2018-02-13T19:59:05.586Z,101179.55
2018-02-13T20:01:33.891Z,101178.72
2018-02-13T20:04:02.257Z,101179.36
2018-02-13T20:06:30.550Z,101177.36
2018-02-13T20:08:58.887Z,101182.11
2018-02-13T20:11:27.214Z,101187.17
2018-02-13T20:13:55.502Z,101185.42
2018-02-13T20:16:23.826Z,101181.68
2018-02-13T20:18:52.153Z,101180.66
2018-02-13T20:21:20.487Z,101186.08
2018-02-13T20:23:49.595Z,101189.09
2018-02-13T20:26:18.751Z,101199.32
2018-02-13T20:28:47.129Z,101199.13
2018-02-13T20:31:16.077Z,101194.26
2018-02-13T20:33:44.381Z,101191.01
2018-02-13T20:36:12.676Z,101194.62
2018-02-13T20:38:40.963Z,101195.86
2018-02-13T20:41:09.291Z,101195.03
2018-02-13T20:43:37.601Z,101193.93
2018-02-13T20:46:05.942Z,101197.62
2018-02-13T20:48:34.274Z,101196.11
2018-02-13T20:51:02.605Z,101197.98
2018-02-13T20:53:30.925Z,101193.37
2018-02-13T20:55:59.998Z,101207.64
2018-02-13T20:58:28.355Z,101211.33
2018-02-13T21:00:56.708Z,101200.00
2018-02-13T21:03:25.011Z,101205.92
2018-02-13T21:05:53.325Z,101211.77
2018-02-13T21:08:21.623Z,101207.68
2018-02-13T21:10:50.700Z,101216.16
2018-02-13T21:13:19.010Z,101218.17
2018-02-13T21:15:48.109Z,101220.81
2018-02-13T21:18:17.198Z,101229.56
2018-02-13T21:20:45.514Z,101223.74
2018-02-13T21:23:13.812Z,101228.19
2018-02-13T21:25:42.108Z,101220.34
2018-02-13T21:28:10.416Z,101226.95
2018-02-13T21:30:38.745Z,101219.58
2018-02-13T21:33:07.048Z,101221.56
2018-02-13T21:35:35.369Z,101218.58
2018-02-13T21:38:04.449Z,101219.97
2018-02-13T21:40:32.751Z,101219.34
2018-02-13T21:43:01.819Z,101220.32
2018-02-13T21:45:30.120Z,101223.59
2018-02-13T21:47:58.440Z,101227.55
2018-02-13T21:50:26.764Z,101227.28
2018-02-13T21:52:55.075Z,101235.77
2018-02-13T21:55:23.371Z,101237.56
2018-02-13T21:57:52.481Z,101241.60
2018-02-13T22:00:20.805Z,101242.58
2018-02-13T22:02:49.127Z,101247.09
2018-02-13T22:05:18.220Z,101242.86
2018-02-13T22:07:47.334Z,101245.19
2018-02-13T22:10:15.640Z,101251.66
2018-02-13T22:12:43.953Z,101259.09
2018-02-13T22:15:12.289Z,101258.62
2018-02-13T22:17:40.599Z,101265.43
2018-02-13T22:20:08.896Z,101256.33
2018-02-13T22:22:37.206Z,101266.82
2018-02-13T22:25:05.508Z,101265.64
2018-02-13T22:27:34.585Z,101268.88
2018-02-13T22:30:02.900Z,101269.43
2018-02-13T22:32:31.484Z,101266.89
2018-02-13T22:34:59.868Z,101265.34
2018-02-13T22:37:28.919Z,101261.24
2018-02-13T22:39:57.235Z,101269.38
2018-02-13T22:42:26.307Z,101273.96
2018-02-13T22:44:54.606Z,101279.48
2018-02-13T22:47:23.798Z,101277.47
2018-02-13T22:49:52.110Z,101290.73
2018-02-13T22:52:20.401Z,101279.48
2018-02-13T22:54:48.730Z,101286.22
2018-02-13T22:57:17.029Z,101288.65
2018-02-13T22:59:46.102Z,101285.59
2018-02-13T23:02:14.394Z,101291.98
2018-02-13T23:04:42.757Z,101291.70
2018-02-13T23:07:11.094Z,101295.73
2018-02-13T23:09:39.394Z,101290.59
2018-02-13T23:12:07.696Z,101298.69
2018-02-13T23:14:36.002Z,101300.14
2018-02-13T23:17:04.350Z,101304.30
2018-02-13T23:19:32.659Z,101303.55
2018-02-13T23:22:00.981Z,101304.17
2018-02-13T23:24:29.277Z,101299.23
2018-02-13T23:26:57.596Z,101289.69
2018-02-13T23:29:25.954Z,101287.61
2018-02-13T23:31:54.246Z,101288.58
2018-02-13T23:34:22.552Z,101287.54
2018-02-13T23:36:50.858Z,101289.06
2018-02-13T23:39:19.952Z,101285.66
2018-02-13T23:41:49.059Z,101286.77
2018-02-13T23:44:18.120Z,101286.49
2018-02-13T23:46:46.410Z,101288.33
2018-02-13T23:49:14.736Z,101284.16
2018-02-13T23:51:43.054Z,101284.51
2018-02-13T23:54:11.379Z,101286.86
2018-02-13T23:56:39.678Z,101282.98
2018-02-13T23:59:08.747Z,101283.60
